Airfield :
LOGIN :

Register | Disclaimer

   EN    FR    IT 

 










Legend :    VFR   Marginal VFR   IFR   Intensive IFR   Very Intensive IFR
Visi :
Ceiling :
>= 8 km
>= 3000ft
5 to 8 km
1000 to 3000 ft
1500m to 5 km
500 to 1000 ft
800 to 1500m
200 to 500 ft
< 800m
< 200 ft
Symbols :   Thunderstorms  Fog  Heavy snow  Heavy precipitations  Wind > 20 kt
SIGMETs :     Misc.  Thunderstorms  Icing  Turbulence  Mountain Waves  Volcanic Ashes






- Airport Elevation : 466 ft


LHPA - Pápa

CURRENT METAR :
  • 290745Z 17006KT 110V230 CAVOK 16/07 Q1012 NOSIG RMK BLU

EXPIRED METARs :
  • 290715Z 20006KT 140V260 CAVOK 16/08 Q1013 NOSIG RMK BLU
  • 290645Z 20006KT 160V250 CAVOK 15/07 Q1013 NOSIG RMK BLU
  • 290615Z 21004KT CAVOK 13/09 Q1013 NOSIG RMK BLU
  • 290545Z 00000KT CAVOK 12/09 Q1013 NOSIG RMK BLU
  • 290515Z 08002KT CAVOK 12/09 Q1013 NOSIG RMK BLU

TAF TAF LHPA
Valid from the 29 at 06:00 until the 30 at 06:00 UTC


290515Z 2906/3006 VRB03KT CAVOK
BECMG 2906/2909 11008KT
BECMG 2909/2912 15010KT
BECMG 2917/2920 32006KT
TEMPO 2917/2922 8000 -RA -SHRA BKN030 OVC080



MET'MAP, your aeronautical weather chart ! - Copyright ORBIFLY December 2007 - Disclaimer

ORBIFLY MET'MAP TEAM :

Programming & Development : Alexandra Zaïnal
Original concept : Baudouin d'Aumeries
Technical & hardware support : Manuel Goepfert
Assistance : Marc-Olivier Méhu

Contact : metmap@orbifly.com




SOURCES & CREDITS :

   NOAA